x

Ilm2 - 5 Miles Se Of Wrightsville Beach, Nc (41038) Weather Station

10:08am - Thu 26th May 2016 All times are EDT. -4 hours from GMT.

  • Wind
    7mph, 9mph gusts
  • Sea Temp 73°f
  • Air Temp 74°f
  • Sea Pressure 1024.1mb
  • Ilm2 - 5 Miles Se Of Wrightsville Beach, Nc
  • Ilm2 - 5 Miles Se Of Wrightsville Beach, Nc

More Historic Weather Station data

Upgrade to MSW Pro to gain access to the past 30 days of data for over 8000 Wavebouys and Weather Stations around the globe.

Join Pro

Comparision Forecast

View Surf forecast
   
Thu 05/26 10:08am 7 9 mph 1024.1mb 73f 74f
9:08am 7 9 mph 1024.3mb 73f 74f
7:08am 4 7 mph 1023.9mb 72f 73f
6:08am 7 11 mph 1023.5mb 73f 73f
5:08am 9 13 mph 1022.9mb 73f 73f
4:08am 11 13 mph 1022.7mb 73f 74f
3:08am 9 13 mph 1022.7mb 73f 74f
2:08am 9 13 mph 1023.1mb 73f 74f
1:08am 9 13 mph 1023.4mb 73f 74f
12:08am 11 13 mph 1023.5mb 73f 74f
Wed 05/25 11:08pm 9 11 mph 1023.5mb 73f 74f
10:08pm 9 11 mph 1023.4mb 73f 73f
9:08pm 9 11 mph 1023.2mb 73f 74f
8:08pm 9 13 mph 1022.8mb 73f 74f
7:08pm 11 16 mph 1022.5mb 73f 75f
6:08pm 13 16 mph 1022.9mb 73f 75f
5:08pm 13 18 mph 1023.3mb 73f 75f
4:08pm 13 18 mph 1023.4mb 73f 75f
3:08pm 13 18 mph 1023.7mb 73f 74f
2:08pm 13 18 mph 1024.2mb 73f 74f
1:08pm 13 16 mph 1024.3mb 73f 74f
12:08pm 9 11 mph 1024.6mb 73f 74f
11:08am 9 11 mph 1024.7mb 72f 73f
10:08am 4 7 mph 1025mb 72f 73f
9:08am 7 9 mph 1024.9mb 72f 72f
8:08am 7 9 mph 1024.5mb 71f 71f
7:08am 7 9 mph 1023.8mb 71f 70f
6:08am 7 9 mph 1023.3mb 71f 70f
5:08am 9 11 mph 1023mb 71f 71f
4:08am 9 13 mph 1022.6mb 72f 71f
3:08am 11 13 mph 1022.4mb 72f 71f
12:08am 13 18 mph 1022.8mb 72f 72f
Tue 05/24 11:08pm 11 16 mph 1022.4mb 72f 72f
9:08pm 11 16 mph 1021mb 72f 72f
8:08pm 13 20 mph 1020.5mb 72f 72f
7:08pm 16 22 mph 1020.1mb 72f 73f
6:08pm 18 25 mph 1020.1mb 72f 73f
5:08pm 20 25 mph 1020.3mb 72f 72f
4:08pm 20 27 mph 1020.7mb 72f 72f
3:08pm 18 25 mph 1021.1mb 72f 72f
12:08pm 7 9 mph 1021.4mb 72f 73f
11:08am 7 9 mph 1021.1mb 72f 71f
10:08am 7 9 mph 1021.2mb 72f 68f
9:08am 9 13 mph 1021.1mb 71f 66f
8:08am 9 13 mph 1020.4mb 71f 65f
7:08am 7 9 mph 1019.3mb 71f 64f
6:08am 7 9 mph 1018.7mb 71f 64f
5:08am 11 13 mph 1017.8mb 71f 62f
4:08am 11 13 mph 1017.6mb 71f 63f
3:08am 11 13 mph 1017.7mb 71f 63f
2:08am 9 13 mph 1017.8mb 71f 64f
1:08am 9 11 mph 1017.8mb 72f 64f
12:08am 9 13 mph 1017.9mb 72f 65f
Mon 05/23 11:08pm 11 16 mph 1017.4mb 72f 65f
10:08pm 11 16 mph 1016.9mb 72f 65f
9:08pm 11 16 mph 1015.9mb 72f 66f
8:08pm 13 18 mph 1015.3mb 72f 66f
7:08pm 16 20 mph 1014.8mb 72f 67f
6:08pm 18 25 mph 1013.9mb 72f 68f
5:08pm 13 18 mph 1014mb 72f 69f
4:08pm 13 18 mph 1014.1mb 72f 68f
3:08pm 13 22 mph 1014.1mb 72f 67f
2:08pm 16 22 mph 1014.1mb 72f 68f
1:08pm 16 20 mph 1014.1mb 72f 67f
12:08pm 13 18 mph 1014.3mb 72f 67f
11:08am 9 11 mph 1014.3mb 72f 65f
10:08am 4 7 mph 1014mb 71f 64f
9:08am 7 11 mph 1014mb 71f 62f
8:08am 11 16 mph 1013.7mb 71f 62f
7:08am 11 16 mph 1012.9mb 71f 62f
6:08am 11 16 mph 1012.6mb 71f 61f
5:08am 11 13 mph 1012.2mb 71f 61f
4:08am 11 16 mph 1011.6mb 71f 62f
3:08am 11 16 mph 1011.7mb 71f 62f
2:08am 7 11 mph 1012.1mb 72f 63f
1:08am 13 18 mph 1012.7mb 72f 63f
12:08am 18 22 mph 1012.6mb 72f 65f
Sun 05/22 11:08pm 16 20 mph 1012.4mb 72f 65f
10:08pm 16 22 mph 1011.5mb 72f 65f
9:08pm 18 22 mph 1011.1mb 72f 66f
8:08pm 16 22 mph 1010.6mb 72f 66f
7:08pm 18 27 mph 1010.6mb 72f 65f
6:08pm 7 9 mph 1009.6mb 72f 71f
5:08pm 7 11 mph 1009.5mb 72f 71f
4:08pm 4 7 mph 1009.7mb 72f 70f
3:08pm 2 7 mph 1010.2mb 72f 69f